Wetterdaten: Woche 07.12.15 - 13.12.15 (KW50)
Datum Zeit Temp. I. Temp. A. Feuchte I. Feuchte A. Luftdruck Regen Wind Richtung Sonnenschein UV Solar Taupunkt Windchill Windben
07.12.2015 00:00 22,8 C 5,3 C 50 % 96 % 1032,1 hPa 0,0 l/m 0,3 km/h (0 Bft) S-SW 0,00 h 0,0 UV-I 0 W/m 4,7 C 5,3 C 1,9 km/h (1 Bft)
07.12.2015 01:00 22,6 C 5,5 C 50 % 95 % 1032,3 hPa 0,0 l/m 0,4 km/h (0 Bft) S 0,00 h 0,0 UV-I 0 W/m 4,8 C 5,5 C 1,7 km/h (1 Bft)
07.12.2015 02:00 22,5 C 5,8 C 50 % 95 % 1032,6 hPa 0,0 l/m 0,3 km/h (0 Bft) S-SO 0,00 h 0,0 UV-I 0 W/m 5,1 C 5,8 C 1,0 km/h (0 Bft)
07.12.2015 03:00 22,4 C 5,8 C 50 % 94 % 1032,7 hPa 0,0 l/m 0,2 km/h (0 Bft) SW 0,00 h 0,0 UV-I 0 W/m 4,9 C 5,8 C 1,3 km/h (1 Bft)
07.12.2015 04:00 22,4 C 5,2 C 50 % 94 % 1032,8 hPa 0,0 l/m 0,7 km/h (0 Bft) S 0,00 h 0,0 UV-I 0 W/m 4,4 C 5,2 C 2,4 km/h (1 Bft)
07.12.2015 05:00 22,3 C 4,8 C 50 % 95 % 1033,2 hPa 0,0 l/m 1,0 km/h (0 Bft) W-SW 0,00 h 0,0 UV-I 0 W/m 4,0 C 4,7 C 2,8 km/h (1 Bft)
07.12.2015 06:00 22,3 C 4,3 C 50 % 95 % 1033,7 hPa 0,0 l/m 1,0 km/h (0 Bft) SW 0,00 h 0,0 UV-I 0 W/m 3,6 C 4,3 C 3,0 km/h (1 Bft)
07.12.2015 07:00 22,3 C 4,1 C 50 % 97 % 1034,3 hPa 0,0 l/m 0,9 km/h (0 Bft) SW 0,00 h 0,0 UV-I 0 W/m 3,6 C 4,1 C 2,8 km/h (1 Bft)
07.12.2015 08:00 22,6 C 4,6 C 52 % 97 % 1035,1 hPa 0,0 l/m 0,6 km/h (0 Bft) SW 0,00 h 0,0 UV-I 10 W/m 4,2 C 4,6 C 2,0 km/h (1 Bft)
07.12.2015 09:00 22,8 C 5,0 C 51 % 97 % 1035,5 hPa 0,0 l/m 0,9 km/h (0 Bft) SW 0,00 h 0,0 UV-I 48 W/m 4,6 C 5,0 C 2,7 km/h (1 Bft)
07.12.2015 10:00 22,8 C 5,8 C 49 % 96 % 1035,5 hPa 0,0 l/m 1,6 km/h (1 Bft) W-SW 0,10 h 0,5 UV-I 119 W/m 5,2 C 5,8 C 4,2 km/h (1 Bft)
07.12.2015 11:00 22,6 C 7,3 C 48 % 91 % 1035,4 hPa 0,0 l/m 1,8 km/h (1 Bft) W-SW 0,92 h 0,8 UV-I 239 W/m 6,0 C 7,3 C 5,2 km/h (1 Bft)
07.12.2015 12:00 22,6 C 8,7 C 47 % 87 % 1035,0 hPa 0,0 l/m 1,8 km/h (1 Bft) S 1,00 h 0,9 UV-I 261 W/m 6,6 C 8,7 C 4,8 km/h (1 Bft)
07.12.2015 13:00 22,7 C 9,6 C 47 % 84 % 1034,6 hPa 0,0 l/m 2,5 km/h (1 Bft) S 1,00 h 0,7 UV-I 220 W/m 7,0 C 9,6 C 5,7 km/h (1 Bft)
07.12.2015 14:00 23,0 C 9,7 C 47 % 83 % 1034,2 hPa 0,0 l/m 0,7 km/h (0 Bft) S 0,13 h 0,5 UV-I 121 W/m 7,0 C 9,7 C 1,9 km/h (1 Bft)
07.12.2015 15:00 23,3 C 9,6 C 48 % 83 % 1034,3 hPa 0,0 l/m 0,3 km/h (0 Bft) SW 0,00 h 0,0 UV-I 36 W/m 6,8 C 9,6 C 1,4 km/h (1 Bft)
07.12.2015 16:00 23,4 C 8,3 C 48 % 85 % 1034,4 hPa 0,0 l/m 0,0 km/h (0 Bft) N 0,00 h 0,0 UV-I 6 W/m 5,9 C 8,3 C 0,0 km/h (0 Bft)
07.12.2015 17:00 23,3 C 6,2 C 48 % 89 % 1034,6 hPa 0,0 l/m 0,0 km/h (0 Bft) N 0,00 h 0,0 UV-I 0 W/m 4,4 C 6,2 C 0,0 km/h (0 Bft)
07.12.2015 18:00 23,4 C 4,5 C 48 % 91 % 1034,9 hPa 0,0 l/m 0,0 km/h (0 Bft) N 0,00 h 0,0 UV-I 0 W/m 3,1 C 4,5 C 0,0 km/h (0 Bft)
07.12.2015 19:00 23,7 C 3,3 C 51 % 92 % 1035,0 hPa 0,0 l/m 0,0 km/h (0 Bft) N 0,00 h 0,0 UV-I 0 W/m 2,1 C 3,3 C 0,0 km/h (0 Bft)
07.12.2015 20:00 23,9 C 2,3 C 51 % 93 % 1035,3 hPa 0,0 l/m 0,0 km/h (0 Bft) N 0,00 h 0,0 UV-I 0 W/m 1,3 C 2,3 C 0,0 km/h (0 Bft)
07.12.2015 21:00 23,7 C 1,5 C 50 % 93 % 1035,4 hPa 0,0 l/m 0,0 km/h (0 Bft) N 0,00 h 0,0 UV-I 0 W/m 0,5 C 1,5 C 0,0 km/h (0 Bft)
07.12.2015 22:00 23,6 C 0,7 C 49 % 94 % 1035,4 hPa 0,0 l/m 0,0 km/h (0 Bft) N 0,00 h 0,0 UV-I 0 W/m -0,2 C 0,7 C 0,0 km/h (0 Bft)
07.12.2015 23:00 23,3 C 0,2 C 49 % 94 % 1035,6 hPa 0,0 l/m 0,0 km/h (0 Bft) N 0,00 h 0,0 UV-I 0 W/m -0,7 C 0,2 C 0,0 km/h (0 Bft)
08.12.2015 00:00 23,1 C -0,2 C 50 % 94 % 1035,5 hPa 0,0 l/m 0,0 km/h (0 Bft) N 0,00 h 0,0 UV-I 0 W/m -1,0 C -0,2 C 0,0 km/h (0 Bft)
08.12.2015 01:00 22,9 C -0,6 C 50 % 95 % 1035,1 hPa 0,0 l/m 0,0 km/h (0 Bft) N 0,00 h 0,0 UV-I 0 W/m -1,3 C -0,6 C 0,0 km/h (0 Bft)
08.12.2015 02:00 22,9 C -0,9 C 51 % 95 % 1034,8 hPa 0,0 l/m 0,0 km/h (0 Bft) N 0,00 h 0,0 UV-I 0 W/m -1,6 C -0,9 C 0,0 km/h (0 Bft)
08.12.2015 03:00 22,8 C -1,2 C 51 % 95 % 1034,5 hPa 0,0 l/m 0,0 km/h (0 Bft) N 0,00 h 0,0 UV-I 0 W/m -1,9 C -1,2 C 0,0 km/h (0 Bft)
08.12.2015 04:00 22,7 C -1,5 C 51 % 95 % 1034,2 hPa 0,0 l/m 0,0 km/h (0 Bft) N 0,00 h 0,0 UV-I 0 W/m -2,2 C -1,5 C 0,0 km/h (0 Bft)
08.12.2015 05:00 22,7 C -1,6 C 52 % 96 % 1034,2 hPa 0,0 l/m 0,0 km/h (0 Bft) N 0,00 h 0,0 UV-I 0 W/m -2,2 C -1,6 C 0,0 km/h (0 Bft)
08.12.2015 06:00 22,7 C -1,8 C 52 % 95 % 1034,2 hPa 0,0 l/m 0,0 km/h (0 Bft) N 0,00 h 0,0 UV-I 0 W/m -2,5 C -1,8 C 0,0 km/h (0 Bft)
08.12.2015 07:00 22,7 C -2,1 C 52 % 96 % 1034,2 hPa 0,0 l/m 0,0 km/h (0 Bft) N 0,00 h 0,0 UV-I 5 W/m -2,7 C -2,1 C 0,0 km/h (0 Bft)
08.12.2015 08:00 22,9 C -1,7 C 50 % 96 % 1034,1 hPa 0,0 l/m 0,0 km/h (0 Bft) N 0,00 h 0,0 UV-I 33 W/m -2,2 C -1,7 C 0,0 km/h (0 Bft)
08.12.2015 09:00 23,1 C 0,9 C 51 % 96 % 1034,2 hPa 0,0 l/m 0,0 km/h (0 Bft) N 0,00 h 0,5 UV-I 104 W/m 0,3 C 0,9 C 0,1 km/h (0 Bft)
08.12.2015 10:00 23,3 C 3,1 C 51 % 93 % 1034,0 hPa 0,0 l/m 0,3 km/h (0 Bft) NW 1,00 h 0,6 UV-I 208 W/m 2,1 C 3,1 C 0,9 km/h (0 Bft)
08.12.2015 11:00 23,4 C 5,6 C 49 % 89 % 1033,4 hPa 0,0 l/m 2,9 km/h (1 Bft) NW 1,00 h 0,8 UV-I 269 W/m 4,0 C 5,6 C 4,8 km/h (1 Bft)
08.12.2015 12:00 23,3 C 7,1 C 46 % 85 % 1032,7 hPa 0,0 l/m 2,8 km/h (1 Bft) NW 1,00 h 0,9 UV-I 271 W/m 4,8 C 7,1 C 4,8 km/h (1 Bft)
08.12.2015 13:00 23,5 C 8,4 C 46 % 81 % 1032,3 hPa 0,0 l/m 0,4 km/h (0 Bft) W-NW 1,00 h 0,7 UV-I 228 W/m 5,4 C 8,4 C 1,5 km/h (1 Bft)
08.12.2015 14:00 23,6 C 7,5 C 45 % 81 % 1032,2 hPa 0,0 l/m 2,6 km/h (1 Bft) O 0,13 h 0,5 UV-I 124 W/m 4,4 C 7,5 C 6,9 km/h (2 Bft)
08.12.2015 15:00 23,6 C 4,6 C 43 % 87 % 1032,5 hPa 0,0 l/m 1,2 km/h (1 Bft) O 0,00 h 0,0 UV-I 35 W/m 2,6 C 4,6 C 4,0 km/h (1 Bft)
08.12.2015 16:00 23,5 C 2,7 C 43 % 92 % 1032,8 hPa 0,0 l/m 2,1 km/h (1 Bft) O 0,00 h 0,0 UV-I 6 W/m 1,5 C 2,7 C 6,3 km/h (2 Bft)
08.12.2015 17:00 23,5 C 2,3 C 44 % 93 % 1033,2 hPa 0,0 l/m 0,8 km/h (0 Bft) O-NO 0,00 h 0,0 UV-I 0 W/m 1,3 C 2,3 C 2,6 km/h (1 Bft)
08.12.2015 18:00 23,6 C 2,0 C 45 % 93 % 1033,3 hPa 0,0 l/m 0,4 km/h (0 Bft) SO 0,00 h 0,0 UV-I 0 W/m 1,0 C 2,0 C 1,0 km/h (0 Bft)
08.12.2015 19:00 23,8 C 1,8 C 48 % 93 % 1033,6 hPa 0,0 l/m 1,9 km/h (1 Bft) S-SO 0,00 h 0,0 UV-I 0 W/m 0,9 C 1,8 C 4,3 km/h (1 Bft)
08.12.2015 20:00 24,1 C 1,5 C 48 % 95 % 1033,4 hPa 0,0 l/m 0,5 km/h (0 Bft) SO 0,00 h 0,0 UV-I 0 W/m 0,8 C 1,5 C 2,2 km/h (1 Bft)
08.12.2015 21:00 23,9 C 1,3 C 47 % 95 % 1033,5 hPa 0,0 l/m 2,2 km/h (1 Bft) S-SO 0,00 h 0,0 UV-I 0 W/m 0,6 C 1,3 C 5,3 km/h (1 Bft)
08.12.2015 22:00 23,7 C 1,3 C 46 % 96 % 1033,5 hPa 0,0 l/m 2,3 km/h (1 Bft) S 0,00 h 0,0 UV-I 0 W/m 0,7 C 1,2 C 5,1 km/h (1 Bft)
08.12.2015 23:00 23,3 C 1,1 C 47 % 96 % 1033,4 hPa 0,0 l/m 2,4 km/h (1 Bft) S 0,00 h 0,0 UV-I 0 W/m 0,6 C 1,1 C 5,4 km/h (1 Bft)
09.12.2015 00:00 23,2 C 0,8 C 47 % 96 % 1033,3 hPa 0,0 l/m 2,0 km/h (1 Bft) S 0,00 h 0,0 UV-I 0 W/m 0,2 C 0,7 C 5,0 km/h (1 Bft)
09.12.2015 01:00 23,0 C 0,9 C 47 % 97 % 1033,2 hPa 0,0 l/m 0,0 km/h (0 Bft) N 0,00 h 0,0 UV-I 0 W/m 0,4 C 0,9 C 0,1 km/h (0 Bft)
09.12.2015 02:00 22,9 C 1,2 C 48 % 97 % 1033,2 hPa 0,0 l/m 0,2 km/h (0 Bft) S 0,00 h 0,0 UV-I 0 W/m 0,8 C 1,2 C 0,4 km/h (0 Bft)
09.12.2015 03:00 22,8 C 1,4 C 48 % 97 % 1033,1 hPa 0,0 l/m 0,7 km/h (0 Bft) S 0,00 h 0,0 UV-I 0 W/m 1,0 C 1,4 C 2,5 km/h (1 Bft)
09.12.2015 04:00 22,8 C 1,6 C 48 % 97 % 1032,8 hPa 0,0 l/m 0,5 km/h (0 Bft) S 0,00 h 0,0 UV-I 0 W/m 1,2 C 1,6 C 1,6 km/h (1 Bft)
09.12.2015 05:00 22,8 C 1,7 C 48 % 97 % 1032,7 hPa 0,0 l/m 0,3 km/h (0 Bft) S-SW 0,00 h 0,0 UV-I 0 W/m 1,3 C 1,7 C 1,4 km/h (1 Bft)
09.12.2015 06:00 22,8 C 1,7 C 49 % 97 % 1032,6 hPa 0,0 l/m 0,3 km/h (0 Bft) W-SW 0,00 h 0,0 UV-I 0 W/m 1,3 C 1,7 C 1,1 km/h (1 Bft)
09.12.2015 07:00 22,7 C 1,8 C 49 % 97 % 1032,7 hPa 0,0 l/m 0,1 km/h (0 Bft) W-SW 0,00 h 0,0 UV-I 0 W/m 1,4 C 1,8 C 0,4 km/h (0 Bft)
09.12.2015 08:00 22,9 C 1,8 C 50 % 98 % 1033,1 hPa 0,0 l/m 0,1 km/h (0 Bft) SW 0,00 h 0,0 UV-I 5 W/m 1,6 C 1,8 C 0,4 km/h (0 Bft)
09.12.2015 09:00 23,2 C 2,0 C 49 % 98 % 1033,9 hPa 0,4 l/m 0,3 km/h (0 Bft) W-SW 0,00 h 0,0 UV-I 12 W/m 1,7 C 2,0 C 0,8 km/h (0 Bft)
09.12.2015 10:00 23,1 C 2,2 C 48 % 98 % 1034,5 hPa 0,6 l/m 0,0 km/h (0 Bft) N 0,00 h 0,0 UV-I 27 W/m 1,9 C 2,2 C 0,0 km/h (0 Bft)
09.12.2015 11:00 23,1 C 2,6 C 46 % 98 % 1034,7 hPa 1,4 l/m 0,0 km/h (0 Bft) N 0,00 h 0,0 UV-I 32 W/m 2,3 C 2,6 C 0,0 km/h (0 Bft)
09.12.2015 12:00 23,3 C 2,8 C 46 % 98 % 1035,0 hPa 1,4 l/m 0,7 km/h (0 Bft) NW 0,00 h 0,0 UV-I 37 W/m 2,6 C 2,8 C 1,8 km/h (1 Bft)
09.12.2015 13:00 23,4 C 3,2 C 46 % 98 % 1035,3 hPa 0,2 l/m 0,2 km/h (0 Bft) NW 0,00 h 0,0 UV-I 37 W/m 3,0 C 3,2 C 1,1 km/h (0 Bft)
09.12.2015 14:00 23,3 C 3,7 C 45 % 98 % 1036,0 hPa 0,0 l/m 1,3 km/h (1 Bft) W-SW 0,00 h 0,0 UV-I 28 W/m 3,3 C 3,7 C 2,8 km/h (1 Bft)
09.12.2015 15:00 23,3 C 3,8 C 46 % 97 % 1036,7 hPa 0,0 l/m 1,8 km/h (1 Bft) W-SW 0,00 h 0,0 UV-I 12 W/m 3,4 C 3,8 C 4,5 km/h (1 Bft)
09.12.2015 16:00 23,4 C 4,0 C 46 % 97 % 1037,5 hPa 0,0 l/m 1,3 km/h (1 Bft) W 0,00 h 0,0 UV-I 6 W/m 3,5 C 4,0 C 3,0 km/h (1 Bft)
09.12.2015 17:00 23,4 C 3,9 C 46 % 97 % 1038,3 hPa 0,0 l/m 0,5 km/h (0 Bft) W-NW 0,00 h 0,0 UV-I 0 W/m 3,5 C 3,9 C 1,4 km/h (1 Bft)
09.12.2015 18:00 23,3 C 3,8 C 46 % 97 % 1038,6 hPa 0,0 l/m 0,0 km/h (0 Bft) N 0,00 h 0,0 UV-I 0 W/m 3,4 C 3,8 C 0,0 km/h (0 Bft)
09.12.2015 19:00 23,4 C 3,5 C 47 % 96 % 1039,2 hPa 0,0 l/m 0,1 km/h (0 Bft) W-SW 0,00 h 0,0 UV-I 0 W/m 3,0 C 3,5 C 0,2 km/h (0 Bft)
09.12.2015 20:00 23,6 C 3,2 C 46 % 96 % 1039,3 hPa 0,0 l/m 0,0 km/h (0 Bft) N 0,00 h 0,0 UV-I 0 W/m 2,6 C 3,2 C 0,0 km/h (0 Bft)
09.12.2015 21:00 23,5 C 2,7 C 46 % 96 % 1039,7 hPa 0,0 l/m 0,0 km/h (0 Bft) N 0,00 h 0,0 UV-I 0 W/m 2,1 C 2,7 C 0,0 km/h (0 Bft)
09.12.2015 22:00 23,5 C 2,1 C 44 % 96 % 1039,8 hPa 0,0 l/m 0,0 km/h (0 Bft) N 0,00 h 0,0 UV-I 0 W/m 1,5 C 2,1 C 0,0 km/h (0 Bft)
09.12.2015 23:00 23,2 C 1,6 C 44 % 96 % 1039,9 hPa 0,0 l/m 0,0 km/h (0 Bft) N 0,00 h 0,0 UV-I 0 W/m 1,0 C 1,6 C 0,0 km/h (0 Bft)
10.12.2015 00:00 23,0 C 1,3 C 45 % 97 % 1040,0 hPa 0,0 l/m 0,0 km/h (0 Bft) N 0,00 h 0,0 UV-I 0 W/m 0,8 C 1,3 C 0,0 km/h (0 Bft)
10.12.2015 01:00 22,9 C 0,6 C 46 % 97 % 1039,8 hPa 0,0 l/m 0,0 km/h (0 Bft) N 0,00 h 0,0 UV-I 0 W/m 0,2 C 0,6 C 0,0 km/h (0 Bft)
10.12.2015 02:00 22,8 C 0,4 C 46 % 97 % 1039,6 hPa 0,0 l/m 0,0 km/h (0 Bft) N 0,00 h 0,0 UV-I 0 W/m -0,0 C 0,4 C 0,0 km/h (0 Bft)
10.12.2015 03:00 22,7 C 0,7 C 47 % 97 % 1039,5 hPa 0,0 l/m 0,0 km/h (0 Bft) N 0,00 h 0,0 UV-I 0 W/m 0,2 C 0,7 C 0,1 km/h (0 Bft)
10.12.2015 04:00 22,1 C 1,2 C 48 % 97 % 1039,5 hPa 0,0 l/m 0,9 km/h (0 Bft) SW 0,00 h 0,0 UV-I 0 W/m 0,8 C 1,2 C 2,4 km/h (1 Bft)
10.12.2015 05:00 21,9 C 1,2 C 49 % 97 % 1039,4 hPa 0,0 l/m 0,6 km/h (0 Bft) S 0,00 h 0,0 UV-I 0 W/m 0,8 C 1,2 C 1,7 km/h (1 Bft)
10.12.2015 06:00 21,9 C 1,2 C 50 % 98 % 1039,2 hPa 0,0 l/m 0,1 km/h (0 Bft) S-SO 0,00 h 0,0 UV-I 0 W/m 0,9 C 1,2 C 0,3 km/h (0 Bft)
10.12.2015 07:00 21,9 C 1,3 C 50 % 98 % 1039,1 hPa 0,0 l/m 0,9 km/h (0 Bft) S 0,00 h 0,0 UV-I 0 W/m 1,0 C 1,3 C 3,0 km/h (1 Bft)
10.12.2015 08:00 22,2 C 1,2 C 47 % 98 % 1039,1 hPa 0,0 l/m 1,2 km/h (1 Bft) W-SW 0,00 h 0,0 UV-I 9 W/m 0,9 C 1,2 C 3,2 km/h (1 Bft)
10.12.2015 09:00 22,6 C 1,1 C 45 % 98 % 1039,3 hPa 0,0 l/m 2,7 km/h (1 Bft) S 0,00 h 0,0 UV-I 26 W/m 0,8 C 1,0 C 6,6 km/h (2 Bft)
10.12.2015 10:00 22,7 C 0,6 C 44 % 98 % 1039,2 hPa 0,0 l/m 1,8 km/h (1 Bft) SW 0,00 h 0,0 UV-I 41 W/m 0,3 C 0,6 C 5,2 km/h (1 Bft)
10.12.2015 11:00 22,7 C 0,7 C 44 % 98 % 1038,6 hPa 0,0 l/m 1,9 km/h (1 Bft) S-SW 0,00 h 0,0 UV-I 62 W/m 0,4 C 0,6 C 5,4 km/h (1 Bft)
10.12.2015 12:00 22,8 C 1,0 C 43 % 98 % 1037,8 hPa 0,0 l/m 2,5 km/h (1 Bft) S 0,00 h 0,0 UV-I 60 W/m 0,7 C 1,0 C 6,1 km/h (2 Bft)
10.12.2015 13:00 22,8 C 1,1 C 42 % 98 % 1037,1 hPa 0,0 l/m 4,3 km/h (1 Bft) S 0,00 h 0,0 UV-I 54 W/m 0,8 C 1,0 C 8,7 km/h (2 Bft)
10.12.2015 14:00 22,8 C 1,2 C 42 % 98 % 1036,4 hPa 0,0 l/m 1,4 km/h (1 Bft) S 0,00 h 0,0 UV-I 32 W/m 0,9 C 1,2 C 4,4 km/h (1 Bft)
10.12.2015 15:00 22,9 C 1,3 C 42 % 97 % 1036,3 hPa 0,0 l/m 0,8 km/h (0 Bft) S 0,00 h 0,0 UV-I 9 W/m 0,9 C 1,3 C 3,1 km/h (1 Bft)
10.12.2015 16:00 23,0 C 1,5 C 42 % 97 % 1035,7 hPa 0,0 l/m 3,0 km/h (1 Bft) S 0,00 h 0,0 UV-I 0 W/m 1,1 C 1,4 C 7,7 km/h (2 Bft)
10.12.2015 17:00 22,8 C 1,8 C 42 % 96 % 1035,3 hPa 0,0 l/m 1,9 km/h (1 Bft) S 0,00 h 0,0 UV-I 0 W/m 1,2 C 1,8 C 5,6 km/h (1 Bft)
10.12.2015 18:00 22,9 C 1,7 C 44 % 94 % 1034,9 hPa 0,0 l/m 1,9 km/h (1 Bft) S 0,00 h 0,0 UV-I 0 W/m 0,9 C 1,7 C 5,2 km/h (1 Bft)
10.12.2015 19:00 23,2 C 1,4 C 45 % 94 % 1034,5 hPa 0,0 l/m 4,9 km/h (1 Bft) S-SO 0,00 h 0,0 UV-I 0 W/m 0,6 C 1,1 C 9,8 km/h (2 Bft)
10.12.2015 20:00 23,3 C 1,1 C 44 % 94 % 1034,1 hPa 0,0 l/m 5,3 km/h (1 Bft) S 0,00 h 0,0 UV-I 0 W/m 0,3 C 0,4 C 9,7 km/h (2 Bft)
10.12.2015 21:00 23,3 C 0,9 C 44 % 94 % 1033,6 hPa 0,0 l/m 3,1 km/h (1 Bft) S 0,00 h 0,0 UV-I 0 W/m 0,0 C 0,7 C 6,9 km/h (2 Bft)
10.12.2015 22:00 23,2 C 0,6 C 42 % 94 % 1033,0 hPa 0,0 l/m 3,1 km/h (1 Bft) S 0,00 h 0,0 UV-I 0 W/m -0,2 C 0,3 C 6,5 km/h (2 Bft)
10.12.2015 23:00 22,7 C 0,6 C 42 % 95 % 1032,7 hPa 0,0 l/m 3,2 km/h (1 Bft) S 0,00 h 0,0 UV-I 0 W/m -0,2 C 0,5 C 7,4 km/h (2 Bft)
11.12.2015 00:00 22,5 C 0,6 C 43 % 95 % 1032,1 hPa 0,0 l/m 2,3 km/h (1 Bft) S 0,00 h 0,0 UV-I 0 W/m -0,1 C 0,6 C 5,3 km/h (1 Bft)
11.12.2015 01:00 22,4 C 0,5 C 43 % 95 % 1031,7 hPa 0,0 l/m 3,8 km/h (1 Bft) S 0,00 h 0,0 UV-I 0 W/m -0,2 C 0,3 C 8,5 km/h (2 Bft)
11.12.2015 02:00 22,3 C 0,4 C 44 % 95 % 1031,2 hPa 0,0 l/m 4,9 km/h (1 Bft) S 0,00 h 0,0 UV-I 0 W/m -0,3 C -0,0 C 9,8 km/h (2 Bft)
11.12.2015 03:00 22,3 C 0,3 C 45 % 95 % 1030,4 hPa 0,0 l/m 3,1 km/h (1 Bft) S 0,00 h 0,0 UV-I 0 W/m -0,4 C 0,0 C 7,6 km/h (2 Bft)
11.12.2015 04:00 22,3 C 0,2 C 45 % 95 % 1030,2 hPa 0,0 l/m 5,9 km/h (2 Bft) S 0,00 h 0,0 UV-I 0 W/m -0,5 C -1,0 C 10,7 km/h (2 Bft)
11.12.2015 05:00 22,3 C 0,1 C 46 % 95 % 1029,9 hPa 0,0 l/m 7,3 km/h (2 Bft) S 0,00 h 0,0 UV-I 0 W/m -0,6 C -1,7 C 13,1 km/h (3 Bft)
11.12.2015 06:00 22,3 C -0,0 C 47 % 95 % 1029,9 hPa 0,0 l/m 7,4 km/h (2 Bft) S 0,00 h 0,0 UV-I 0 W/m -0,7 C -1,8 C 13,4 km/h (3 Bft)
11.12.2015 07:00 22,4 C 0,0 C 47 % 95 % 1029,5 hPa 0,0 l/m 5,1 km/h (1 Bft) S 0,00 h 0,0 UV-I 0 W/m -0,7 C -0,6 C 9,1 km/h (2 Bft)
11.12.2015 08:00 22,7 C -0,0 C 47 % 95 % 1029,9 hPa 0,0 l/m 6,1 km/h (2 Bft) S 0,00 h 0,0 UV-I 15 W/m -0,7 C -1,0 C 10,3 km/h (2 Bft)
11.12.2015 09:00 23,0 C 0,2 C 46 % 94 % 1029,6 hPa 0,0 l/m 5,0 km/h (1 Bft) S 0,00 h 0,0 UV-I 79 W/m -0,7 C -0,5 C 9,6 km/h (2 Bft)
11.12.2015 10:00 23,3 C 0,9 C 45 % 92 % 1029,5 hPa 0,0 l/m 4,5 km/h (1 Bft) S 0,28 h 0,5 UV-I 133 W/m -0,2 C 0,3 C 8,6 km/h (2 Bft)
11.12.2015 11:00 23,1 C 1,8 C 42 % 89 % 1029,0 hPa 0,0 l/m 6,9 km/h (2 Bft) S 0,70 h 0,7 UV-I 177 W/m 0,3 C 0,6 C 11,3 km/h (2 Bft)
11.12.2015 15:00 23,1 C 3,3 C 41 % 86 % 1027,1 hPa 0,0 l/m 5,8 km/h (2 Bft) SW 0,00 h 0,0 UV-I 12 W/m 1,3 C 2,7 C 10,7 km/h (2 Bft)
11.12.2015 16:00 23,4 C 3,4 C 42 % 86 % 1027,0 hPa 0,0 l/m 7,2 km/h (2 Bft) S-SW 0,00 h 0,0 UV-I 0 W/m 1,4 C 2,2 C 12,4 km/h (3 Bft)
11.12.2015 17:00 23,6 C 3,3 C 43 % 89 % 1026,8 hPa 0,0 l/m 6,6 km/h (2 Bft) W-SW 0,00 h 0,0 UV-I 0 W/m 1,6 C 1,9 C 11,5 km/h (2 Bft)
11.12.2015 18:00 23,6 C 3,1 C 43 % 93 % 1026,5 hPa 0,0 l/m 6,0 km/h (2 Bft) W-SW 0,00 h 0,0 UV-I 0 W/m 2,1 C 2,3 C 10,8 km/h (2 Bft)
11.12.2015 19:00 23,2 C 3,2 C 40 % 94 % 1026,2 hPa 0,6 l/m 0,9 km/h (0 Bft) SW 0,00 h 0,0 UV-I 0 W/m 2,3 C 3,2 C 3,3 km/h (1 Bft)
11.12.2015 20:00 23,5 C 3,2 C 42 % 95 % 1026,1 hPa 0,2 l/m 0,4 km/h (0 Bft) SW 0,00 h 0,0 UV-I 0 W/m 2,5 C 3,2 C 1,9 km/h (1 Bft)
11.12.2015 21:00 23,3 C 3,5 C 42 % 96 % 1025,7 hPa 0,0 l/m 1,4 km/h (1 Bft) S 0,00 h 0,0 UV-I 0 W/m 2,8 C 3,5 C 4,4 km/h (1 Bft)
11.12.2015 22:00 23,3 C 3,7 C 42 % 96 % 1024,7 hPa 0,2 l/m 2,1 km/h (1 Bft) SW 0,00 h 0,0 UV-I 0 W/m 3,1 C 3,7 C 6,0 km/h (2 Bft)
11.12.2015 23:00 23,0 C 3,8 C 42 % 96 % 1024,0 hPa 0,2 l/m 8,0 km/h (2 Bft) S 0,00 h 0,0 UV-I 0 W/m 3,2 C 1,9 C 15,0 km/h (3 Bft)
12.12.2015 00:00 22,8 C 3,9 C 43 % 96 % 1023,7 hPa 1,2 l/m 10,8 km/h (2 Bft) S-SW 0,00 h 0,0 UV-I 0 W/m 3,3 C 0,4 C 17,3 km/h (3 Bft)
12.12.2015 01:00 22,7 C 4,0 C 43 % 96 % 1023,3 hPa 0,6 l/m 11,1 km/h (2 Bft) S-SW 0,00 h 0,0 UV-I 0 W/m 3,4 C 0,3 C 17,3 km/h (3 Bft)
12.12.2015 02:00 22,6 C 4,3 C 43 % 97 % 1023,1 hPa 0,6 l/m 10,7 km/h (2 Bft) S-SW 0,00 h 0,0 UV-I 0 W/m 3,8 C 1,0 C 16,9 km/h (3 Bft)
12.12.2015 03:00 22,6 C 4,6 C 44 % 97 % 1022,9 hPa 0,4 l/m 6,1 km/h (2 Bft) S-SW 0,00 h 0,0 UV-I 0 W/m 4,2 C 3,7 C 11,3 km/h (2 Bft)
12.12.2015 04:00 22,8 C 4,8 C 44 % 97 % 1022,9 hPa 1,0 l/m 1,2 km/h (1 Bft) S-SW 0,00 h 0,0 UV-I 0 W/m 4,3 C 4,8 C 4,5 km/h (1 Bft)
12.12.2015 05:00 22,9 C 5,1 C 45 % 97 % 1022,9 hPa 0,6 l/m 1,8 km/h (1 Bft) S-SW 0,00 h 0,0 UV-I 0 W/m 4,6 C 5,1 C 6,4 km/h (2 Bft)
12.12.2015 06:00 23,2 C 5,6 C 46 % 98 % 1023,1 hPa 0,4 l/m 2,0 km/h (1 Bft) W-SW 0,00 h 0,0 UV-I 0 W/m 5,2 C 5,6 C 5,4 km/h (1 Bft)
12.12.2015 07:00 23,3 C 5,8 C 46 % 97 % 1023,5 hPa 0,6 l/m 4,1 km/h (1 Bft) W-SW 0,00 h 0,0 UV-I 0 W/m 5,4 C 5,2 C 8,9 km/h (2 Bft)
12.12.2015 08:00 23,3 C 4,8 C 46 % 96 % 1024,3 hPa 0,2 l/m 5,6 km/h (1 Bft) W-NW 0,00 h 0,0 UV-I 7 W/m 4,1 C 3,8 C 9,4 km/h (2 Bft)
12.12.2015 09:00 23,4 C 4,0 C 44 % 93 % 1024,9 hPa 0,0 l/m 4,6 km/h (1 Bft) W 0,00 h 0,0 UV-I 19 W/m 3,1 C 3,6 C 9,1 km/h (2 Bft)
12.12.2015 10:00 23,5 C 3,9 C 43 % 93 % 1025,2 hPa 0,0 l/m 2,5 km/h (1 Bft) W-SW 0,00 h 0,0 UV-I 31 W/m 2,8 C 3,7 C 5,7 km/h (1 Bft)
12.12.2015 11:00 23,2 C 3,7 C 42 % 93 % 1025,2 hPa 0,0 l/m 3,8 km/h (1 Bft) W-SW 0,00 h 0,0 UV-I 27 W/m 2,6 C 3,3 C 8,3 km/h (2 Bft)
12.12.2015 12:00 23,3 C 3,6 C 42 % 93 % 1025,0 hPa 0,0 l/m 7,6 km/h (2 Bft) W-SW 0,00 h 0,0 UV-I 38 W/m 2,5 C 2,0 C 12,5 km/h (3 Bft)
12.12.2015 13:00 23,9 C 3,7 C 42 % 93 % 1024,8 hPa 0,0 l/m 2,0 km/h (1 Bft) W-SW 0,00 h 0,5 UV-I 52 W/m 2,7 C 3,6 C 5,0 km/h (1 Bft)
12.12.2015 14:00 23,6 C 4,1 C 42 % 93 % 1024,4 hPa 0,0 l/m 0,7 km/h (0 Bft) SW 0,00 h 0,0 UV-I 32 W/m 3,0 C 4,1 C 3,2 km/h (1 Bft)
12.12.2015 15:00 23,6 C 4,0 C 42 % 93 % 1024,3 hPa 0,0 l/m 3,6 km/h (1 Bft) W-SW 0,00 h 0,0 UV-I 12 W/m 3,0 C 4,0 C 8,3 km/h (2 Bft)
12.12.2015 16:00 23,6 C 3,9 C 42 % 92 % 1024,6 hPa 0,0 l/m 2,0 km/h (1 Bft) W-SW 0,00 h 0,0 UV-I 0 W/m 2,8 C 3,8 C 5,2 km/h (1 Bft)
12.12.2015 17:00 23,5 C 3,9 C 42 % 92 % 1024,4 hPa 0,0 l/m 0,3 km/h (0 Bft) W-SW 0,00 h 0,0 UV-I 0 W/m 2,8 C 3,9 C 1,1 km/h (1 Bft)
12.12.2015 18:00 23,5 C 3,8 C 42 % 94 % 1024,1 hPa 0,0 l/m 0,0 km/h (0 Bft) S 0,00 h 0,0 UV-I 0 W/m 3,0 C 3,8 C 0,2 km/h (0 Bft)
12.12.2015 19:00 23,5 C 3,8 C 42 % 96 % 1023,4 hPa 0,0 l/m 0,3 km/h (0 Bft) S 0,00 h 0,0 UV-I 0 W/m 3,2 C 3,8 C 1,3 km/h (1 Bft)
12.12.2015 20:00 23,3 C 4,2 C 42 % 97 % 1022,7 hPa 0,0 l/m 0,8 km/h (0 Bft) S 0,00 h 0,0 UV-I 0 W/m 3,7 C 4,2 C 2,5 km/h (1 Bft)
12.12.2015 21:00 23,5 C 4,6 C 43 % 97 % 1022,0 hPa 0,0 l/m 1,6 km/h (1 Bft) S 0,00 h 0,0 UV-I 0 W/m 4,2 C 4,6 C 4,2 km/h (1 Bft)
12.12.2015 22:00 23,4 C 5,2 C 44 % 98 % 1021,3 hPa 0,0 l/m 4,5 km/h (1 Bft) S 0,00 h 0,0 UV-I 0 W/m 4,9 C 5,0 C 9,2 km/h (2 Bft)
12.12.2015 23:00 23,2 C 5,5 C 44 % 98 % 1020,8 hPa 0,0 l/m 4,8 km/h (1 Bft) S 0,00 h 0,0 UV-I 0 W/m 5,2 C 5,2 C 10,0 km/h (2 Bft)
13.12.2015 00:00 23,1 C 5,4 C 44 % 98 % 1020,2 hPa 0,0 l/m 6,2 km/h (2 Bft) S 0,00 h 0,0 UV-I 0 W/m 5,1 C 4,6 C 11,9 km/h (2 Bft)
13.12.2015 01:00 22,9 C 5,5 C 44 % 97 % 1019,5 hPa 0,0 l/m 5,2 km/h (1 Bft) S 0,00 h 0,0 UV-I 0 W/m 5,1 C 5,0 C 9,0 km/h (2 Bft)
13.12.2015 02:00 22,9 C 5,7 C 44 % 96 % 1019,0 hPa 0,0 l/m 4,6 km/h (1 Bft) S 0,00 h 0,0 UV-I 0 W/m 5,1 C 5,4 C 8,8 km/h (2 Bft)
13.12.2015 03:00 22,8 C 5,6 C 45 % 96 % 1018,3 hPa 0,0 l/m 3,7 km/h (1 Bft) S 0,00 h 0,0 UV-I 0 W/m 5,1 C 5,5 C 8,8 km/h (2 Bft)
13.12.2015 04:00 23,1 C 5,7 C 45 % 95 % 1017,9 hPa 0,0 l/m 3,7 km/h (1 Bft) SW 0,00 h 0,0 UV-I 0 W/m 5,0 C 5,5 C 9,0 km/h (2 Bft)
13.12.2015 05:00 23,2 C 5,8 C 46 % 95 % 1017,7 hPa 0,0 l/m 3,1 km/h (1 Bft) SW 0,00 h 0,0 UV-I 0 W/m 5,1 C 5,7 C 8,1 km/h (2 Bft)
13.12.2015 06:00 23,4 C 5,8 C 46 % 94 % 1017,6 hPa 0,0 l/m 4,3 km/h (1 Bft) SW 0,00 h 0,0 UV-I 0 W/m 4,9 C 5,5 C 10,2 km/h (2 Bft)
13.12.2015 07:00 23,5 C 5,7 C 46 % 94 % 1017,6 hPa 0,0 l/m 4,9 km/h (1 Bft) SW 0,00 h 0,0 UV-I 0 W/m 4,8 C 5,4 C 11,4 km/h (2 Bft)
13.12.2015 08:00 23,7 C 5,7 C 47 % 94 % 1017,7 hPa 0,0 l/m 8,2 km/h (2 Bft) W-SW 0,00 h 0,0 UV-I 10 W/m 4,8 C 3,4 C 15,4 km/h (3 Bft)
13.12.2015 09:00 23,9 C 5,9 C 47 % 94 % 1017,8 hPa 0,0 l/m 15,7 km/h (3 Bft) W-SW 0,00 h 0,0 UV-I 18 W/m 5,0 C -0,0 C 25,9 km/h (4 Bft)
13.12.2015 10:00 23,7 C 5,9 C 44 % 95 % 1018,7 hPa 0,0 l/m 13,2 km/h (3 Bft) W 0,00 h 0,0 UV-I 32 W/m 5,2 C 1,3 C 20,6 km/h (4 Bft)
13.12.2015 11:00 23,6 C 6,1 C 44 % 95 % 1019,1 hPa 0,0 l/m 12,7 km/h (3 Bft) W 0,00 h 0,0 UV-I 35 W/m 5,4 C 1,8 C 20,9 km/h (4 Bft)
13.12.2015 12:00 23,8 C 6,2 C 46 % 95 % 1019,2 hPa 0,0 l/m 12,6 km/h (3 Bft) W 0,00 h 0,5 UV-I 41 W/m 5,5 C 2,0 C 20,2 km/h (4 Bft)
13.12.2015 13:00 23,8 C 6,3 C 45 % 94 % 1019,6 hPa 0,0 l/m 10,7 km/h (2 Bft) W 0,00 h 0,0 UV-I 16 W/m 5,4 C 3,2 C 17,5 km/h (3 Bft)
13.12.2015 14:00 23,6 C 6,1 C 45 % 95 % 1020,0 hPa 0,0 l/m 10,0 km/h (2 Bft) W 0,00 h 0,0 UV-I 7 W/m 5,5 C 3,4 C 15,3 km/h (3 Bft)
13.12.2015 15:00 23,6 C 6,0 C 45 % 96 % 1020,7 hPa 0,2 l/m 5,2 km/h (1 Bft) N 0,00 h 0,0 UV-I 6 W/m 5,4 C 5,4 C 9,2 km/h (2 Bft)
13.12.2015 16:00 23,7 C 4,9 C 45 % 95 % 1021,7 hPa 0,0 l/m 4,3 km/h (1 Bft) N 0,00 h 0,0 UV-I 0 W/m 4,2 C 4,3 C 7,5 km/h (2 Bft)
13.12.2015 17:00 23,9 C 4,3 C 46 % 95 % 1022,3 hPa 0,2 l/m 0,0 km/h (0 Bft) N 0,00 h 0,0 UV-I 0 W/m 3,6 C 4,3 C 0,0 km/h (0 Bft)
13.12.2015 18:00 23,7 C 3,8 C 45 % 95 % 1022,9 hPa 0,0 l/m 0,0 km/h (0 Bft) N 0,00 h 0,0 UV-I 0 W/m 3,1 C 3,8 C 0,0 km/h (0 Bft)
13.12.2015 19:00 23,8 C 3,7 C 47 % 95 % 1023,5 hPa 0,0 l/m 0,0 km/h (0 Bft) N 0,00 h 0,0 UV-I 0 W/m 2,9 C 3,7 C 0,0 km/h (0 Bft)
13.12.2015 20:00 23,5 C 3,6 C 44 % 95 % 1023,8 hPa 0,0 l/m 0,0 km/h (0 Bft) N 0,00 h 0,0 UV-I 0 W/m 2,9 C 3,6 C 0,0 km/h (0 Bft)
13.12.2015 21:00 23,6 C 3,5 C 45 % 94 % 1024,1 hPa 0,0 l/m 0,0 km/h (0 Bft) N 0,00 h 0,0 UV-I 0 W/m 2,6 C 3,5 C 0,0 km/h (0 Bft)
13.12.2015 22:00 23,4 C 3,3 C 44 % 94 % 1024,3 hPa 0,0 l/m 0,0 km/h (0 Bft) N 0,00 h 0,0 UV-I 0 W/m 2,5 C 3,3 C 0,0 km/h (0 Bft)
13.12.2015 23:00 23,4 C 3,2 C 46 % 95 % 1024,3 hPa 0,0 l/m 0,0 km/h (0 Bft) N 0,00 h 0,0 UV-I 0 W/m 2,5 C 3,2 C 0,0 km/h (0 Bft)
Min-Datum _ 10.12.15 08.12.15 10.12.15 08.12.15 13.12.15 - 07.12.15 - - - - 08.12.15 11.12.15 07.12.15
_ Min-Zeit 07:22 07:10 22:57 14:04 09:16 - 00:00 - - - - 07:35 06:16 00:00
Minimum _ 21,8 C -2,1 C 35 % 77 % 1017,2 hPa - 0,0 km/h (0 Bft) - - - - -2,8 C -6,7 C 0,0 km/h (0 Bft)
Max-Datum _ 08.12.15 07.12.15 07.12.15 07.12.15 10.12.15 09.12.15 13.12.15 - 08.12.15 07.12.15 07.12.15 07.12.15 07.12.15 13.12.15
_ Max-Zeit 20:35 13:37 09:06 09:47 00:03 11:05 09:14 - 12:09 11:25 11:25 13:34 13:37 09:37
Maximum _ 24,2 C 10,1 C 53 % 98 % 1040,1 hPa 1,4 l/m 24,1 km/h
W-SW (4 Bft)
- 0,03 h 0,9 UV-I 322 W/m 7,5 C 10,1 C 35,4 km/h
W-SW (5 Bft)
Durchschnitt _ 23,1 C 3,1 C 46 % 95 % 1030,5 hPa #11,2 l/m 2,5 km/h (1 Bft) S #8:16 h 0,6 UV-I 64 W/m 2,3 C 2,7 C 5,1 km/h (1 Bft)